Time;durP1;ratioP1;P1;durP2;ratioP2;P2;SDS_P1;SDS_P2;PMS_P1;PMS_P2;Temp;Humidity;BMP_temperature;BMP_pressure;BME280_temperature;BME280_humidity;BME280_pressure;Samples;Min_cycle;Max_cycle;Signal;HPM_P1;HPM_P2
2022/10/12 00:01:24;;;;;;;4.03;1.33;;;;;;;16.12;76.14;101127.88;4991993;28;20068;-70
2022/10/12 00:03:49;;;;;;;5.70;1.70;;;;;;;16.10;75.93;101121.75;4991886;28;20109;-76
2022/10/12 00:06:18;;;;;;;5.43;1.83;;;;;;;16.05;76.34;101120.75;4991389;28;20121;-73
2022/10/12 00:08:45;;;;;;;4.07;1.55;;;;;;;16.05;76.72;101120.75;4992171;28;20406;-73
2022/10/12 00:11:16;;;;;;;6.57;1.67;;;;;;;16.04;76.85;101123.31;4991858;28;20173;-76
2022/10/12 00:13:42;;;;;;;10.60;1.90;;;;;;;15.95;77.69;101119.66;4991987;28;20105;-72
2022/10/12 00:16:09;;;;;;;8.57;1.80;;;;;;;15.94;77.14;101117.00;4991993;28;20110;-70
2022/10/12 00:18:35;;;;;;;12.90;2.42;;;;;;;15.95;77.72;101109.22;4991459;28;20561;-73
2022/10/12 00:21:06;;;;;;;6.45;2.28;;;;;;;15.92;77.98;101114.34;4991647;28;20116;-76
2022/10/12 00:23:32;;;;;;;5.35;1.83;;;;;;;15.88;78.31;101116.84;4991660;28;20034;-75
2022/10/12 00:26:07;;;;;;;6.22;1.70;;;;;;;15.85;77.88;101115.06;4991505;28;20485;-70
2022/10/12 00:28:33;;;;;;;7.18;2.10;;;;;;;15.73;78.03;101099.94;4991568;28;20026;-73
2022/10/12 00:30:59;;;;;;;8.35;1.83;;;;;;;15.78;78.31;101105.28;4990962;28;20022;-73
2022/10/12 00:33:27;;;;;;;5.78;2.15;;;;;;;15.77;77.92;101109.59;4991727;28;20018;-74
2022/10/12 00:35:53;;;;;;;7.30;1.77;;;;;;;15.83;77.84;101109.78;4991182;28;20030;-73
2022/10/12 00:38:20;;;;;;;7.93;1.95;;;;;;;15.73;78.09;101106.91;4991508;28;20098;-69
2022/10/12 00:40:46;;;;;;;8.35;1.88;;;;;;;15.54;78.63;101093.41;4991432;28;20448;-72
2022/10/12 00:43:35;;;;;;;10.25;2.38;;;;;;;15.33;78.89;101081.56;4991222;28;20026;-70
2022/10/12 00:46:04;;;;;;;9.57;1.95;;;;;;;15.43;79.32;101090.50;4991082;28;20127;-70
2022/10/12 00:48:30;;;;;;;7.32;2.08;;;;;;;15.49;79.43;101108.00;4991115;28;20069;-73
2022/10/12 00:50:58;;;;;;;5.15;2.10;;;;;;;15.47;79.35;101104.47;5005959;28;20505;-72
2022/10/12 00:53:28;;;;;;;9.40;2.65;;;;;;;15.40;78.66;101080.00;4990902;28;20038;-73
2022/10/12 00:55:58;;;;;;;7.15;2.42;;;;;;;15.42;78.70;101096.53;4991214;28;20034;-73
2022/10/12 00:58:24;;;;;;;8.90;2.08;;;;;;;15.33;78.87;101075.47;4988840;28;20053;-75
2022/10/12 01:00:50;;;;;;;8.55;2.20;;;;;;;15.45;78.56;101093.13;4991225;28;20026;-75
2022/10/12 01:03:20;;;;;;;11.10;2.15;;;;;;;15.51;78.78;101090.69;4989513;28;20061;-74
2022/10/12 01:05:46;;;;;;;;;;;;;;;15.53;78.58;101092.50;4991428;28;20493;-72
2022/10/12 01:08:12;;;;;;;5.65;2.33;;;;;;;15.52;79.04;101090.72;4991062;28;20016;-75
2022/10/12 01:10:37;;;;;;;5.82;2.08;;;;;;;15.30;78.96;101047.66;4990618;28;20536;-73
2022/10/12 01:13:03;;;;;;;9.52;2.53;;;;;;;15.34;79.22;101052.09;4990549;28;20077;-75
2022/10/12 01:15:38;;;;;;;13.15;2.42;;;;;;;15.51;79.23;101089.00;4990864;28;20408;-72
2022/10/12 01:18:20;;;;;;;9.93;2.10;;;;;;;15.56;79.56;101093.44;4990957;28;20061;-74
2022/10/12 01:21:10;;;;;;;7.00;2.28;;;;;;;15.53;79.40;101087.28;4990821;28;20030;-74
2022/10/12 01:23:47;;;;;;;9.52;2.20;;;;;;;15.51;79.12;101088.09;4990712;28;20030;-74
2022/10/12 01:26:59;;;;;;;8.82;2.67;;;;;;;15.47;79.59;101094.94;4990804;28;20038;-72
2022/10/12 01:29:41;;;;;;;6.32;2.17;;;;;;;15.30;79.39;101068.47;4949457;29;20137;-72
2022/10/12 01:32:28;;;;;;;11.15;2.50;;;;;;;15.41;79.48;101099.09;4949348;29;20403;-74
2022/10/12 01:35:12;;;;;;;11.63;2.70;;;;;;;15.35;79.53;101103.31;4949522;29;20528;-71
2022/10/12 01:38:07;;;;;;;9.02;2.55;;;;;;;15.27;79.92;101109.13;4949249;29;20051;-73
2022/10/12 01:40:51;;;;;;;10.50;2.95;;;;;;;15.25;80.19;101105.59;4911616;29;20040;-79
2022/10/12 01:43:20;;;;;;;5.82;2.47;;;;;;;14.97;80.51;101066.69;4911855;29;20083;-75
2022/10/12 01:45:45;;;;;;;9.02;2.50;;;;;;;15.20;80.26;101108.06;4911421;29;20411;-75
2022/10/12 01:48:10;;;;;;;9.90;2.30;;;;;;;15.16;80.56;101119.22;4911740;29;20193;-75
2022/10/12 01:50:48;;;;;;;10.32;2.47;;;;;;;14.99;80.77;101108.31;4911734;29;20043;-75
2022/10/12 01:53:44;;;;;;;9.30;2.83;;;;;;;15.04;80.76;101124.94;4911844;29;20032;-73
2022/10/12 01:56:24;;;;;;;7.28;2.80;;;;;;;15.02;80.67;101109.28;4892766;29;20052;-72
2022/10/12 01:59:06;;;;;;;12.23;3.15;;;;;;;15.01;80.90;101120.53;4892733;29;20065;-73
2022/10/12 02:01:55;;;;;;;7.43;2.95;;;;;;;15.04;80.43;101122.34;4892645;29;20194;-73
2022/10/12 02:04:28;;;;;;;7.35;2.83;;;;;;;15.14;79.86;101123.50;4874624;29;20579;-73
2022/10/12 02:07:07;;;;;;;10.85;3.17;;;;;;;15.20;78.82;101108.06;4874128;29;20049;-76
2022/10/12 02:09:34;;;;;;;;;;;;;;;15.27;78.62;101116.94;4876934;29;20094;-78
2022/10/12 02:12:05;;;;;;;6.28;2.92;;;;;;;15.22;79.04;101119.41;4877689;29;19979;-76
2022/10/12 02:14:39;;;;;;;10.45;2.90;;;;;;;15.22;78.93;101122.00;4877666;29;20128;-75
2022/10/12 02:17:09;;;;;;;6.82;2.70;;;;;;;15.21;78.71;101125.44;4909084;29;20091;-75
2022/10/12 02:19:40;;;;;;;8.30;2.80;;;;;;;15.24;78.53;101122.03;4933827;29;20051;-74
2022/10/12 02:22:08;;;;;;;7.03;2.55;;;;;;;15.04;78.55;101091.13;4934117;29;20038;-75
2022/10/12 02:24:37;;;;;;;7.20;3.22;;;;;;;15.29;78.48;101136.94;4933839;29;20509;-76
2022/10/12 02:27:06;;;;;;;5.88;2.30;;;;;;;15.10;77.60;101093.03;4933944;29;20043;-75
2022/10/12 02:29:43;;;;;;;8.07;3.00;;;;;;;15.34;78.07;101130.16;4933980;29;20043;-69
2022/10/12 02:32:17;;;;;;;8.32;2.65;;;;;;;15.35;77.76;101125.81;4936085;28;20043;-77
2022/10/12 02:34:46;;;;;;;10.15;3.05;;;;;;;15.37;77.63;101125.00;4994033;28;20034;-74
2022/10/12 02:37:23;;;;;;;9.83;2.80;;;;;;;15.43;77.11;101123.44;4994035;28;20101;-73
2022/10/12 02:39:55;;;;;;;6.43;2.70;;;;;;;15.48;77.12;101119.25;4993983;28;20254;-71
2022/10/12 02:42:27;;;;;;;9.52;2.90;;;;;;;15.57;76.55;101122.09;4993860;28;20030;-73
2022/10/12 02:44:54;;;;;;;5.13;2.83;;;;;;;15.62;76.78;101122.22;5007754;28;20042;-73
2022/10/12 02:47:23;;;;;;;8.27;3.10;;;;;;;15.57;77.71;101124.69;4993921;28;20022;-73
2022/10/12 02:49:50;;;;;;;9.43;3.25;;;;;;;15.48;78.48;101125.31;4993751;28;20034;-71
2022/10/12 02:52:15;;;;;;;9.13;2.72;;;;;;;15.30;78.00;101101.41;4993635;28;20038;-73
2022/10/12 02:54:41;;;;;;;7.25;2.88;;;;;;;15.36;78.58;101128.50;4993470;28;20027;-74
2022/10/12 02:57:06;;;;;;;5.53;3.10;;;;;;;15.26;78.72;101123.84;4993758;28;20049;-73
2022/10/12 02:59:32;;;;;;;10.48;2.80;;;;;;;15.31;78.96;101139.59;4993535;28;20166;-74
2022/10/12 03:01:57;;;;;;;8.88;3.05;;;;;;;15.31;78.77;101136.97;4993514;28;20393;-73
2022/10/12 03:04:22;;;;;;;9.18;3.15;;;;;;;15.27;78.95;101132.53;4993339;28;20485;-72
2022/10/12 03:06:48;;;;;;;10.85;3.80;;;;;;;15.23;78.84;101143.69;5007614;28;20042;-72
2022/10/12 03:09:13;;;;;;;10.10;3.35;;;;;;;14.92;79.19;101091.69;4993312;28;20081;-73
2022/10/12 03:11:42;;;;;;;14.50;3.85;;;;;;;15.16;78.78;101151.31;4992773;28;20025;-73
2022/10/12 03:14:13;;;;;;;11.32;3.80;;;;;;;15.10;79.31;101158.06;5008220;28;20030;-72
2022/10/12 03:16:40;;;;;;;10.63;3.70;;;;;;;15.04;78.68;101151.84;4993470;28;20030;-72
2022/10/12 03:19:06;;;;;;;8.85;3.58;;;;;;;15.04;78.91;101151.84;4993167;28;20130;-71
2022/10/12 03:21:31;;;;;;;11.30;3.90;;;;;;;14.89;78.50;101148.75;4992128;28;20038;-72
2022/10/12 03:23:57;;;;;;;15.55;3.95;;;;;;;14.72;79.80;101151.75;4990936;28;20038;-72
2022/10/12 03:26:22;;;;;;;8.43;3.42;;;;;;;14.68;80.12;101151.63;4993289;28;20367;-74
2022/10/12 03:28:48;;;;;;;7.88;3.65;;;;;;;14.74;80.27;101154.38;4993195;28;20038;-74
2022/10/12 03:31:13;;;;;;;9.57;3.85;;;;;;;14.80;79.73;101156.28;4993100;28;20022;-72
2022/10/12 03:33:39;;;;;;;7.65;4.10;;;;;;;14.59;79.83;101117.50;4974424;28;20491;-72
2022/10/12 03:36:04;;;;;;;11.93;4.03;;;;;;;14.69;80.02;101148.16;4992939;28;20037;-73
2022/10/12 03:38:30;;;;;;;10.25;3.55;;;;;;;14.68;79.48;101146.41;4992734;28;20465;-70
2022/10/12 03:40:56;;;;;;;9.07;3.60;;;;;;;14.78;79.48;101147.56;4992709;28;20053;-73
2022/10/12 03:43:21;;;;;;;13.73;3.67;;;;;;;14.86;79.49;101152.16;4992801;28;20030;-73
2022/10/12 03:45:47;;;;;;;9.88;3.75;;;;;;;14.81;79.08;101147.66;4986785;28;20057;-73
2022/10/12 03:48:12;;;;;;;8.65;3.63;;;;;;;14.80;79.73;101153.69;4973332;28;20477;-70
2022/10/12 03:50:39;;;;;;;12.40;3.55;;;;;;;14.78;79.92;101151.06;4973149;28;20561;-71
2022/10/12 03:53:04;;;;;;;12.05;3.72;;;;;;;14.73;79.89;101144.84;4973063;28;20473;-73
2022/10/12 03:55:31;;;;;;;9.00;3.55;;;;;;;14.41;80.31;101103.09;4975746;28;20029;-69
2022/10/12 03:57:56;;;;;;;9.07;3.33;;;;;;;14.70;80.89;101153.44;4982355;28;20019;-72
2022/10/12 04:00:23;;;;;;;9.38;3.47;;;;;;;14.71;80.62;101157.75;4976763;28;20037;-71
2022/10/12 04:02:49;;;;;;;8.93;3.40;;;;;;;14.71;80.54;101155.16;4990430;28;20026;-72
2022/10/12 04:05:16;;;;;;;11.75;4.35;;;;;;;14.72;80.60;101153.47;4991943;28;20034;-75
2022/10/12 04:07:41;;;;;;;14.50;3.72;;;;;;;14.65;80.76;101147.19;4991822;28;20033;-71
2022/10/12 04:10:07;;;;;;;11.85;4.03;;;;;;;14.74;80.54;101141.38;4991864;28;20030;-71
2022/10/12 04:12:33;;;;;;;12.70;3.35;;;;;;;14.78;79.96;101147.56;4991293;28;20038;-72
2022/10/12 04:14:58;;;;;;;12.65;3.42;;;;;;;14.80;79.13;101151.09;4992042;28;20022;-69
2022/10/12 04:17:24;;;;;;;10.55;3.88;;;;;;;14.73;79.33;101147.44;4991847;28;20034;-71
2022/10/12 04:19:49;;;;;;;7.78;4.10;;;;;;;14.65;79.71;101141.97;4991897;28;20396;-71
2022/10/12 04:22:15;;;;;;;8.93;4.05;;;;;;;14.66;79.89;101154.16;4991322;28;20034;-71
2022/10/12 04:24:40;;;;;;;9.68;4.35;;;;;;;14.69;79.91;101148.16;4991683;28;20105;-70
2022/10/12 04:27:06;;;;;;;15.95;4.32;;;;;;;14.44;79.97;101104.91;4991450;28;20417;-69
2022/10/12 04:29:31;;;;;;;10.23;4.15;;;;;;;14.82;79.27;101155.50;4990460;28;20022;-71
2022/10/12 04:31:57;;;;;;;16.13;4.32;;;;;;;14.85;78.84;101154.72;4991088;28;20034;-70
2022/10/12 04:34:22;;;;;;;13.05;4.28;;;;;;;14.79;78.71;101155.44;4991841;28;20114;-71
2022/10/12 04:36:47;;;;;;;14.18;4.70;;;;;;;14.77;78.66;101162.28;4991213;28;20408;-70
2022/10/12 04:39:13;;;;;;;20.20;4.53;;;;;;;14.66;79.13;101151.53;4991360;28;20022;-70
2022/10/12 04:41:38;;;;;;;19.70;5.47;;;;;;;14.37;79.50;101122.03;4991806;28;20027;-71
2022/10/12 04:44:05;;;;;;;12.10;5.00;;;;;;;14.47;79.47;101136.19;4989088;28;20030;-70
2022/10/12 04:46:31;;;;;;;16.90;4.65;;;;;;;14.61;79.78;101154.81;4990948;28;20054;-67
2022/10/12 04:48:56;;;;;;;16.50;5.10;;;;;;;14.54;79.83;101149.44;4991357;28;20128;-71
2022/10/12 04:51:23;;;;;;;19.55;4.80;;;;;;;14.38;80.48;101163.63;4991222;28;20068;-70
2022/10/12 04:53:49;;;;;;;24.65;5.63;;;;;;;14.27;80.89;101161.50;4991181;28;20129;-70
2022/10/12 04:56:14;;;;;;;33.42;5.95;;;;;;;14.18;81.56;101160.38;4991532;28;20037;-72
2022/10/12 04:58:40;;;;;;;22.23;5.53;;;;;;;13.98;81.77;101131.16;4991422;28;20098;-70
2022/10/12 05:01:05;;;;;;;17.17;5.45;;;;;;;13.91;82.05;101124.00;4991263;28;20027;-70
2022/10/12 05:03:31;;;;;;;18.38;4.75;;;;;;;14.14;82.25;101161.09;4990107;28;20030;-70
2022/10/12 05:05:56;;;;;;;15.88;4.50;;;;;;;14.12;82.42;101167.06;4989696;28;20041;-70
2022/10/12 05:08:22;;;;;;;10.07;4.35;;;;;;;14.11;82.78;101171.41;4990663;28;20066;-71
2022/10/12 05:10:47;;;;;;;14.40;4.63;;;;;;;14.12;82.78;101167.97;4989988;28;20034;-69
2022/10/12 05:13:13;;;;;;;12.73;4.65;;;;;;;14.05;82.92;101164.28;4990841;28;20037;-68
2022/10/12 05:15:41;;;;;;;10.32;4.15;;;;;;;14.13;82.91;101172.34;4990506;28;20469;-69
2022/10/12 05:18:06;;;;;;;9.57;4.03;;;;;;;14.11;82.41;101160.13;4990384;28;20102;-68
2022/10/12 05:20:31;;;;;;;9.93;4.13;;;;;;;14.21;82.52;101170.00;4990036;28;20089;-70
2022/10/12 05:22:57;;;;;;;8.75;3.80;;;;;;;14.33;82.02;101191.19;4990181;28;20023;-70
2022/10/12 05:25:23;;;;;;;10.50;4.18;;;;;;;13.82;83.53;101147.94;4989676;28;20041;-70
2022/10/12 05:27:48;;;;;;;10.43;4.18;;;;;;;14.02;84.58;101190.16;4990631;28;20038;-67
2022/10/12 05:30:14;;;;;;;11.68;4.20;;;;;;;14.09;84.29;101186.03;4990469;28;20037;-71
2022/10/12 05:32:40;;;;;;;12.75;4.45;;;;;;;14.08;84.77;101179.06;4989506;28;20026;-70
2022/10/12 05:35:06;;;;;;;11.80;4.25;;;;;;;14.11;84.50;101196.50;4989547;28;20034;-71
2022/10/12 05:37:33;;;;;;;13.50;4.20;;;;;;;13.94;84.91;101190.72;4988627;28;20054;-69
2022/10/12 05:39:58;;;;;;;9.88;4.30;;;;;;;13.73;85.87;101192.59;4989481;28;20114;-72
2022/10/12 05:42:24;;;;;;;10.27;4.13;;;;;;;13.69;85.77;101163.91;4989501;28;20046;-73
2022/10/12 05:44:49;;;;;;;13.98;4.95;;;;;;;14.02;84.96;101200.53;4991684;28;20382;-72
2022/10/12 05:47:14;;;;;;;11.43;3.47;;;;;;;14.00;84.84;101201.31;5008964;28;20030;-69
2022/10/12 05:49:40;;;;;;;8.18;3.78;;;;;;;14.12;85.20;101198.22;4993723;28;20030;-74
2022/10/12 05:52:05;;;;;;;9.85;3.33;;;;;;;14.26;83.91;101207.38;4993977;28;20113;-72
2022/10/12 05:54:31;;;;;;;7.13;3.70;;;;;;;14.41;83.87;101207.00;5009709;28;20038;-68
2022/10/12 05:56:56;;;;;;;12.82;4.10;;;;;;;14.61;83.61;101215.47;4994478;28;20018;-71
2022/10/12 05:59:22;;;;;;;27.55;5.13;;;;;;;14.89;83.42;101218.97;4994767;28;20521;-69
2022/10/12 06:01:48;;;;;;;14.85;4.72;;;;;;;15.23;81.26;101219.09;5010668;28;20459;-66
2022/10/12 06:04:14;;;;;;;12.43;3.75;;;;;;;15.44;80.17;101219.75;4994210;28;20026;-72
2022/10/12 06:06:39;;;;;;;13.23;3.58;;;;;;;15.55;79.87;101212.25;4994013;28;20030;-73
2022/10/12 06:09:05;;;;;;;13.18;3.70;;;;;;;15.71;79.16;101220.50;4994724;28;20030;-72
2022/10/12 06:11:31;;;;;;;14.02;4.07;;;;;;;15.88;78.73;101221.00;4993502;28;20587;-72
2022/10/12 06:13:56;;;;;;;13.70;3.83;;;;;;;15.99;78.88;101219.56;4994382;28;20030;-71
2022/10/12 06:16:22;;;;;;;11.82;3.65;;;;;;;16.16;79.13;101223.50;4994171;28;20034;-70
2022/10/12 06:18:47;;;;;;;10.43;3.58;;;;;;;16.41;77.13;101231.06;4994281;28;20061;-68
2022/10/12 06:21:12;;;;;;;8.93;3.88;;;;;;;16.65;75.01;101218.63;4993710;28;20037;-72
2022/10/12 06:23:38;;;;;;;7.20;3.47;;;;;;;16.84;73.74;101218.19;4991870;28;20031;-74
2022/10/12 06:26:03;;;;;;;7.90;3.58;;;;;;;16.86;73.75;101217.38;4993041;28;20026;-76
2022/10/12 06:28:29;;;;;;;6.90;2.92;;;;;;;16.97;75.12;101217.63;4993801;28;20441;-75
2022/10/12 06:30:58;;;;;;;8.15;3.42;;;;;;;16.87;73.61;101195.66;4993503;28;20073;-75
2022/10/12 06:33:24;;;;;;;7.72;2.78;;;;;;;17.00;73.95;101222.03;4991516;28;20034;-75
2022/10/12 06:35:50;;;;;;;4.60;2.53;;;;;;;17.09;72.96;101225.75;4990607;28;20038;-71
2022/10/12 06:38:15;;;;;;;9.32;2.85;;;;;;;17.29;72.75;101233.13;4974471;28;20118;-74
2022/10/12 06:40:41;;;;;;;8.23;2.33;;;;;;;17.48;71.93;101236.13;4993658;28;20033;-72
2022/10/12 06:43:07;;;;;;;8.05;2.67;;;;;;;17.55;71.42;101238.91;4994049;28;20038;-73
2022/10/12 06:45:32;;;;;;;6.63;2.72;;;;;;;17.28;72.79;101215.72;4993924;28;20406;-71
2022/10/12 06:47:58;;;;;;;7.88;2.30;;;;;;;17.42;72.99;101242.09;4993677;28;20046;-73
2022/10/12 06:50:25;;;;;;;4.85;2.40;;;;;;;17.49;71.81;101243.13;4993766;28;20030;-75
2022/10/12 06:52:51;;;;;;;7.60;2.20;;;;;;;17.56;71.09;101239.81;4993580;28;20397;-73
2022/10/12 06:55:17;;;;;;;8.70;3.10;;;;;;;17.55;71.53;101245.88;5008770;28;20117;-73
2022/10/12 06:57:42;;;;;;;16.58;4.60;;;;;;;17.54;71.99;101242.34;4994143;28;20105;-70
2022/10/12 07:00:08;;;;;;;13.57;3.95;;;;;;;17.55;73.66;101241.50;4993796;28;20409;-73
2022/10/12 07:02:34;;;;;;;12.10;3.45;;;;;;;17.54;73.15;101242.34;4993470;28;20172;-73
2022/10/12 07:05:00;;;;;;;19.15;5.25;;;;;;;17.52;71.72;101246.69;4993652;28;20487;-73
2022/10/12 07:07:27;;;;;;;14.75;3.47;;;;;;;17.47;72.57;101245.72;4993551;28;20038;-70
2022/10/12 07:09:53;;;;;;;13.43;2.78;;;;;;;17.55;70.96;101253.69;4993456;28;20040;-73
2022/10/12 07:12:18;;;;;;;7.93;2.30;;;;;;;17.61;72.08;101246.00;4993555;28;20412;-73
2022/10/12 07:14:44;;;;;;;18.52;3.97;;;;;;;17.61;71.31;101241.63;4993374;28;20027;-70
2022/10/12 07:17:09;;;;;;;12.73;3.13;;;;;;;17.68;71.21;101249.59;4993297;28;20034;-70
2022/10/12 07:19:35;;;;;;;21.42;2.80;;;;;;;17.66;70.33;101249.56;4993401;28;20057;-76
2022/10/12 07:22:00;;;;;;;32.63;8.45;;;;;;;17.73;70.25;101241.03;4993203;28;20101;-71
2022/10/12 07:24:34;;;;;;;42.78;10.38;;;;;;;17.79;70.45;101248.06;4993200;28;20093;-76
2022/10/12 07:27:00;;;;;;;10.93;3.20;;;;;;;17.82;70.03;101261.22;4993108;28;20060;-72
2022/10/12 07:29:25;;;;;;;10.43;2.47;;;;;;;17.84;70.52;101253.41;4993182;28;20030;-73
2022/10/12 07:31:50;;;;;;;8.07;2.20;;;;;;;17.67;70.91;101214.78;4992989;28;20034;-73
2022/10/12 07:34:16;;;;;;;11.27;2.50;;;;;;;17.98;69.73;101248.47;4993009;28;20026;-70
2022/10/12 07:36:43;;;;;;;31.75;6.80;;;;;;;18.03;71.13;101245.09;4993279;28;20026;-71
2022/10/12 07:39:09;;;;;;;11.00;2.47;;;;;;;18.16;70.36;101246.19;4992914;28;20054;-77
2022/10/12 07:41:35;;;;;;;9.10;2.00;;;;;;;18.10;69.67;101241.72;4992803;28;20511;-70
2022/10/12 07:44:00;;;;;;;12.00;2.25;;;;;;;18.09;70.31;101237.38;4992708;28;20073;-75
2022/10/12 07:46:26;;;;;;;8.30;1.60;;;;;;;17.81;69.38;101201.09;4992892;28;20409;-70
2022/10/12 07:48:51;;;;;;;6.82;2.22;;;;;;;18.00;70.32;101241.56;4992822;28;20405;-74
2022/10/12 07:51:17;;;;;;;10.23;2.13;;;;;;;18.03;68.58;101242.50;4992855;28;20037;-73
2022/10/12 07:53:42;;;;;;;6.93;2.00;;;;;;;18.04;69.15;101243.34;4992624;28;20034;-76
2022/10/12 07:56:13;;;;;;;11.02;2.08;;;;;;;18.11;69.43;101233.03;4992714;28;20398;-72
2022/10/12 07:58:40;;;;;;;6.50;1.63;;;;;;;18.21;68.71;101230.63;4992729;28;20029;-76
2022/10/12 08:01:06;;;;;;;6.30;1.52;;;;;;;18.12;68.16;101197.34;4991151;28;20041;-72
2022/10/12 08:03:32;;;;;;;13.15;3.08;;;;;;;18.60;66.05;101234.75;4992448;28;20022;-73
2022/10/12 08:05:57;;;;;;;15.60;3.92;;;;;;;18.58;65.82;101202.47;4992251;28;20092;-71
2022/10/12 08:08:23;;;;;;;6.90;2.33;;;;;;;18.95;63.51;101237.03;4992608;28;20496;-71
2022/10/12 08:10:48;;;;;;;17.00;2.03;;;;;;;19.00;63.32;101232.75;4992474;28;20034;-73
2022/10/12 08:13:14;;;;;;;4.45;1.52;;;;;;;19.02;60.42;101236.28;4992359;28;20077;-70
2022/10/12 08:15:39;;;;;;;4.10;1.42;;;;;;;19.06;60.45;101242.44;4992099;28;20034;-70
2022/10/12 08:18:04;;;;;;;7.85;1.50;;;;;;;19.07;61.01;101242.47;4992170;28;20468;-73
2022/10/12 08:20:30;;;;;;;4.57;1.38;;;;;;;19.05;61.29;101246.81;4992292;28;20108;-74
2022/10/12 08:22:55;;;;;;;4.97;1.58;;;;;;;19.08;60.98;101240.75;4992087;28;20026;-70
2022/10/12 08:25:21;;;;;;;7.97;2.00;;;;;;;19.11;60.51;101235.53;4992091;28;20032;-73
2022/10/12 08:27:46;;;;;;;4.47;1.58;;;;;;;19.19;59.73;101233.03;4992122;28;20022;-72
2022/10/12 08:30:12;;;;;;;8.15;1.52;;;;;;;19.33;60.07;101239.34;4991767;28;20404;-69
2022/10/12 08:32:37;;;;;;;6.97;1.90;;;;;;;19.43;61.65;101237.72;4992073;28;20397;-73
2022/10/12 08:35:04;;;;;;;5.60;1.58;;;;;;;19.37;61.09;101221.94;4991940;28;20109;-70
2022/10/12 08:37:29;;;;;;;7.35;2.35;;;;;;;19.54;60.80;101240.47;4991998;28;20030;-71
2022/10/12 08:39:55;;;;;;;9.15;2.10;;;;;;;19.66;62.03;101232.75;4991779;28;20414;-74
2022/10/12 08:42:31;;;;;;;3.53;1.40;;;;;;;19.85;58.18;101233.88;4991796;28;20026;-73
2022/10/12 08:45:06;;;;;;;6.57;1.85;;;;;;;20.03;56.52;101229.69;4988553;28;20093;-71
2022/10/12 08:47:50;;;;;;;3.80;1.20;;;;;;;20.07;55.18;101226.22;4981814;28;20045;-70
2022/10/12 08:50:27;;;;;;;8.02;1.80;;;;;;;20.14;55.66;101227.19;4991583;28;20109;-73
2022/10/12 08:52:58;;;;;;;5.97;1.27;;;;;;;20.06;53.17;101195.63;4991517;28;20109;-72
2022/10/12 08:55:35;;;;;;;6.20;1.90;;;;;;;20.22;53.26;101233.34;4991516;28;20466;-72
2022/10/12 08:58:01;;;;;;;5.78;1.23;;;;;;;20.23;49.83;101236.88;4991656;28;20040;-69
2022/10/12 09:00:30;;;;;;;4.93;1.10;;;;;;;20.20;51.15;101233.34;4991799;28;20039;-74
2022/10/12 09:03:35;;;;;;;12.88;3.85;;;;;;;20.25;49.62;101219.41;4991514;28;20026;-69
2022/10/12 09:06:18;;;;;;;8.23;2.53;;;;;;;20.07;50.02;101189.53;4893105;29;20044;-69
2022/10/12 09:08:49;;;;;;;13.10;1.55;;;;;;;20.15;51.23;101228.91;4893462;29;20037;-71
2022/10/12 09:11:58;;;;;;;5.50;1.30;;;;;;;20.03;51.19;101211.34;4893231;29;20124;-71
2022/10/12 09:14:35;;;;;;;5.72;1.02;;;;;;;19.94;50.78;101187.66;4893457;29;20063;-75
2022/10/12 09:17:04;;;;;;;4.88;1.60;;;;;;;20.18;48.67;101226.34;4893342;29;20047;-72
2022/10/12 09:19:37;;;;;;;7.88;2.13;;;;;;;20.25;47.43;101222.91;4892545;29;20067;-71
2022/10/12 09:22:04;;;;;;;8.77;2.28;;;;;;;20.29;47.70;101224.69;4893324;29;20044;-72
2022/10/12 09:24:38;;;;;;;13.18;3.88;;;;;;;20.24;47.57;101228.13;4893126;29;20123;-75
2022/10/12 09:27:19;;;;;;;5.20;1.60;;;;;;;20.25;45.45;101219.41;4893044;29;20126;-72
2022/10/12 09:29:48;;;;;;;5.07;1.25;;;;;;;20.32;47.80;101224.69;4892998;29;20033;-76
2022/10/12 09:32:27;;;;;;;4.93;1.55;;;;;;;20.32;45.31;101214.22;4893282;29;20040;-74
2022/10/12 09:34:53;;;;;;;18.83;3.80;;;;;;;20.29;45.45;101215.97;4892978;29;20068;-73
2022/10/12 09:37:25;;;;;;;10.73;2.22;;;;;;;20.35;49.93;101218.63;4893025;29;20044;-72
2022/10/12 09:39:51;;;;;;;4.40;1.23;;;;;;;20.36;48.22;101212.50;4893181;29;20194;-77
2022/10/12 09:42:16;;;;;;;7.45;2.05;;;;;;;20.44;48.78;101210.84;4915442;28;20124;-74
2022/10/12 09:44:49;;;;;;;8.25;2.33;;;;;;;20.44;48.79;101204.72;4991201;28;20053;-74
2022/10/12 09:47:22;;;;;;;6.22;1.17;;;;;;;20.41;47.53;101200.34;4990770;28;20046;-73
2022/10/12 09:49:49;;;;;;;3.63;1.00;;;;;;;20.39;49.84;101164.44;4991148;28;20026;-75
2022/10/12 09:52:18;;;;;;;3.40;1.13;;;;;;;20.57;48.07;101195.19;4991252;28;20080;-75
2022/10/12 09:54:50;;;;;;;9.20;1.27;;;;;;;20.39;47.19;101154.84;4991055;28;20041;-74
2022/10/12 09:57:28;;;;;;;5.50;1.20;;;;;;;20.64;47.64;101190.00;4990917;28;20030;-74
2022/10/12 09:59:55;;;;;;;8.15;1.45;;;;;;;20.74;46.01;101197.97;4990855;28;20038;-71
2022/10/12 10:02:25;;;;;;;11.00;2.90;;;;;;;20.78;48.41;101178.75;4991030;28;20058;-74
2022/10/12 10:04:52;;;;;;;8.10;1.65;;;;;;;20.89;46.32;101182.31;4990986;28;20101;-77
2022/10/12 10:07:36;;;;;;;5.78;1.42;;;;;;;20.91;43.23;101174.44;4990937;28;20072;-75
2022/10/12 10:10:09;;;;;;;9.10;2.05;;;;;;;21.02;43.01;101185.88;4990774;28;20029;-72
2022/10/12 10:12:57;;;;;;;3.25;1.13;;;;;;;21.02;41.66;101183.25;4990809;28;20049;-74
2022/10/12 10:15:34;;;;;;;10.00;1.77;;;;;;;21.01;42.26;101165.75;4990771;28;20033;-75
2022/10/12 10:18:04;;;;;;;7.75;1.52;;;;;;;21.06;39.13;101147.38;4990697;28;20026;-69
2022/10/12 10:20:38;;;;;;;6.68;1.30;;;;;;;21.24;42.82;101168.47;4990537;28;20114;-73
2022/10/12 10:23:04;;;;;;;4.38;0.90;;;;;;;21.11;41.04;101167.56;4990912;28;20472;-71
2022/10/12 10:25:30;;;;;;;3.03;1.00;;;;;;;21.19;41.50;101166.72;4990618;28;20026;-73
2022/10/12 10:28:19;;;;;;;4.95;0.88;;;;;;;21.32;38.82;101164.13;4990836;28;20030;-73
2022/10/12 10:30:55;;;;;;;2.20;1.00;;;;;;;21.52;40.98;101159.81;4993212;28;20030;-70
2022/10/12 10:33:20;;;;;;;2.78;1.30;;;;;;;21.76;41.63;101156.41;4993973;28;20045;-73
2022/10/12 10:36:14;;;;;;;3.35;1.00;;;;;;;21.83;40.28;101120.47;4994335;28;20698;-70
2022/10/12 10:39:29;;;;;;;7.47;1.20;;;;;;;22.11;41.78;101147.66;4991705;28;20058;-72
2022/10/12 10:41:55;;;;;;;21.98;5.20;;;;;;;22.13;40.64;101138.00;4952748;28;20540;-74
2022/10/12 10:44:32;;;;;;;14.95;3.22;;;;;;;22.23;39.02;101137.16;4952101;29;20118;-70
2022/10/12 10:47:02;;;;;;;5.88;1.45;;;;;;;22.32;40.57;101132.72;4952533;28;20134;-76
2022/10/12 10:49:41;;;;;;;5.13;1.30;;;;;;;22.40;39.23;101131.03;4952681;29;20051;-73
2022/10/12 10:52:22;;;;;;;8.23;1.40;;;;;;;22.38;38.56;101120.50;4952773;29;20039;-70
2022/10/12 10:54:48;;;;;;;3.15;1.25;;;;;;;22.54;39.06;101131.88;4952531;28;20072;-71
2022/10/12 10:57:21;;;;;;;3.13;1.23;;;;;;;22.67;38.69;101127.44;4952720;29;20050;-73
2022/10/12 10:59:54;;;;;;;5.57;1.30;;;;;;;22.68;40.85;101121.31;4952855;28;20561;-75
2022/10/12 11:02:37;;;;;;;4.55;1.45;;;;;;;22.80;42.42;101132.69;4952224;29;20047;-74
2022/10/12 11:05:14;;;;;;;3.45;1.20;;;;;;;22.69;42.25;101125.72;4952597;29;20039;-71
2022/10/12 11:08:02;;;;;;;4.07;1.50;;;;;;;22.58;39.75;101109.94;4952159;29;20050;-75
2022/10/12 11:10:34;;;;;;;5.05;1.20;;;;;;;22.57;41.06;101120.47;4952247;29;20517;-71
2022/10/12 11:13:11;;;;;;;16.73;3.42;;;;;;;22.61;38.68;101111.69;4952400;29;20059;-72
2022/10/12 11:15:42;;;;;;;3.45;1.23;;;;;;;22.64;37.88;101110.78;4962042;28;20046;-71
2022/10/12 11:18:19;;;;;;;3.03;1.00;;;;;;;22.57;37.76;101110.81;4973811;28;20031;-74
2022/10/12 11:20:50;;;;;;;6.60;1.30;;;;;;;22.44;38.69;101078.41;4973991;28;20106;-73
2022/10/12 11:23:43;;;;;;;8.50;1.63;;;;;;;22.73;35.81;101105.50;4973996;28;20485;-75
2022/10/12 11:26:19;;;;;;;6.38;1.40;;;;;;;22.88;37.54;101094.91;4978860;28;20089;-76
2022/10/12 11:28:45;;;;;;;6.10;1.20;;;;;;;23.02;34.38;101107.16;4993255;28;20125;-70
2022/10/12 11:31:33;;;;;;;6.32;1.63;;;;;;;23.06;32.62;101106.25;4993038;28;20169;-73
2022/10/12 11:34:03;;;;;;;12.63;2.75;;;;;;;23.10;33.18;101095.69;4993185;28;20034;-74